Nyk Virgo — 9V5456 — position and weather

sailwx.info

Track history (hours):
 
Tides and Currents Weather Stations Pressure Air Temp Water Temp Dewpoint Dewpoint Depression Visibility Wind Speed Wind Dir Waves Ship Positions

Nyk Virgo

Last reported at 2018-Jun-20 12:28 UTC. Time now 2018-Jun-20 12:54 UTC.
Position N 49°27' E 000°10'.

Length 338 m; draft 12.9 m.

Type: Ship (hazmat cat A). MMSI: 563025600.

Date/timePositionNaut miles runAvg speedWind from/ knotsBaromVisibWave heightAir tempDewpointWater temp
2018-Jun-20 12:28N 49°27' E 000°10'0 0.0
2018-Jun-20 11:58N 49°27' E 000°10'0 0.0
2018-Jun-20 11:28N 49°27' E 000°10'0 0.0
2018-Jun-20 10:58N 49°27' E 000°10'0 0.0
2018-Jun-20 10:28N 49°27' E 000°10'0 0.0
2018-Jun-20 09:58N 49°27' E 000°10'0 0.0
2018-Jun-20 09:28N 49°27' E 000°10'0 0.0
2018-Jun-20 08:58N 49°27' E 000°10'0 0.0
2018-Jun-20 08:28N 49°27' E 000°10'0 0.0
2018-Jun-20 07:58N 49°27' E 000°10'0 0.0
2018-Jun-20 07:28N 49°27' E 000°10'0 0.0
2018-Jun-20 06:58N 49°27' E 000°10'0 0.1
2018-Jun-20 06:28N 49°27' E 000°10'0 0.0
2018-Jun-20 05:58N 49°27' E 000°10'0 0.0
2018-Jun-20 05:28N 49°27' E 000°10'0 0.0
2018-Jun-20 04:58N 49°27' E 000°10'0 0.0
2018-Jun-20 04:28N 49°27' E 000°10'0 0.0
2018-Jun-20 03:58N 49°27' E 000°10'0 0.0
2018-Jun-20 03:28N 49°27' E 000°10'0 0.0
2018-Jun-20 02:58N 49°27' E 000°10'0 0.0
2018-Jun-20 02:28N 49°27' E 000°10'0 0.0
2018-Jun-20 01:58N 49°27' E 000°10'0 0.1
2018-Jun-20 01:28N 49°27' E 000°10'0 0.1
2018-Jun-20 00:58N 49°27' E 000°10'0 0.0
2018-Jun-20 00:28N 49°27' E 000°10'0 0.0
2018-Jun-19 23:58N 49°27' E 000°10'0 0.0
2018-Jun-19 23:28N 49°27' E 000°10'0 0.0
2018-Jun-19 22:58N 49°27' E 000°10'0 0.0
2018-Jun-19 22:28N 49°27' E 000°10'0 0.0
2018-Jun-19 21:58N 49°27' E 000°10'0 0.0
2018-Jun-19 21:28N 49°27' E 000°10'0 0.0
2018-Jun-19 20:58N 49°27' E 000°10'0 0.0
2018-Jun-19 20:28N 49°27' E 000°10'0 0.0
2018-Jun-19 19:58N 49°27' E 000°10'0 0.0
2018-Jun-19 19:28N 49°27' E 000°10'0 0.0
2018-Jun-19 18:58N 49°27' E 000°10'0 0.0
2018-Jun-19 18:28N 49°27' E 000°10'0 0.0
2018-Jun-19 17:58N 49°27' E 000°10'0 0.0
2018-Jun-19 17:28N 49°27' E 000°10'0 0.0
2018-Jun-19 16:58N 49°27' E 000°10'0 0.0
2018-Jun-19 16:28N 49°27' E 000°10'0 0.0
2018-Jun-19 15:58N 49°27' E 000°10'0 0.1
2018-Jun-19 15:30N 49°27' E 000°10'1 1.6
2018-Jun-19 15:00N 49°27' E 000°09'5 9.7
2018-Jun-19 14:30N 49°30' E 000°02'612.8
2018-Jun-19 14:00N 49°32' W 000°07'3 5.8
2018-Jun-19 13:30N 49°33' W 000°11'510.3
2018-Jun-19 13:00N 49°34' W 000°19'511.0
2018-Jun-19 12:30N 49°38' W 000°26'612.5
2018-Jun-19 12:01N 49°42' W 000°33'918.0
2018-Jun-19 11:31N 49°47' W 000°44'917.2
2018-Jun-19 11:00N 49°56' W 000°47'816.7
2018-Jun-19 10:31N 50°04' W 000°49'816.5
2018-Jun-19 10:00N 50°12' W 000°51'916.5
2018-Jun-19 09:28N 50°21' W 000°53'816.3
2018-Jun-19 09:00N 50°28' W 000°55'815.8
2018-Jun-19 08:30N 50°36' W 000°56'4 7.1
2018-Jun-19 08:00N 50°40' W 000°57'510.0
2018-Jun-19 07:30N 50°43' W 001°02'612.9
2018-Jun-19 07:00N 50°46' W 001°11'5 9.6
2018-Jun-19 06:30N 50°48' W 001°18'5 9.6
2018-Jun-19 06:00N 50°52' W 001°22'4 7.4
2018-Jun-19 05:31N 50°54' W 001°27'1 1.6
2018-Jun-19 05:00N 50°55' W 001°28'0 0.1
2018-Jun-19 04:25N 50°55' W 001°28'0 0.0
2018-Jun-19 03:55N 50°55' W 001°28'0 0.0
2018-Jun-19 03:28N 50°55' W 001°28'0 0.0
2018-Jun-19 01:58N 50°55' W 001°28'0 0.0
2018-Jun-18 15:37N 50°55' W 001°28'0 0.0
2018-Jun-18 08:46N 50°55' W 001°28'0 0.0
2018-Jun-18 08:13N 50°55' W 001°28'0 0.0
2018-Jun-18 07:49N 50°55' W 001°28'0 0.1
2018-Jun-18 07:28N 50°55' W 001°28'0 0.0
2018-Jun-18 05:31N 50°55' W 001°28'0 0.0
2018-Jun-18 05:07N 50°55' W 001°28'0 0.0
2018-Jun-18 01:07N 50°55' W 001°28'0 0.0
2018-Jun-18 00:55N 50°55' W 001°28'0 0.0
2018-Jun-17 20:55N 50°55' W 001°28'0 0.0
2018-Jun-17 20:19N 50°55' W 001°28'0 1.3
2018-Jun-17 20:00N 50°54' W 001°27'2 4.3
2018-Jun-17 19:30N 50°53' W 001°24'4 8.3
2018-Jun-17 19:01N 50°51' W 001°19'4 8.0
2018-Jun-17 18:30N 50°47' W 001°19'713.1
2018-Jun-17 18:00N 50°46' W 001°08'612.3
2018-Jun-17 17:30N 50°43' W 000°60'5 9.6
2018-Jun-17 17:00N 50°38' W 000°57'4 8.2
2018-Jun-17 16:30N 50°35' W 000°54'5 9.3
2018-Jun-17 16:00N 50°34' W 000°47'918.7
2018-Jun-17 15:30N 50°33' W 000°32'918.6
2018-Jun-17 15:00N 50°33' W 000°17'918.2
2018-Jun-17 14:29N 50°32' W 000°03'917.8
2018-Jun-17 14:00N 50°35' E 000°10'917.3
2018-Jun-17 13:30N 50°37' E 000°24'816.8
2018-Jun-17 13:00N 50°39' E 000°37'816.8
2018-Jun-17 12:30N 50°43' E 000°48'816.8
2018-Jun-17 12:00N 50°47' E 000°60'917.5
2018-Jun-17 11:30N 50°52' E 001°11'1019.8
2018-Jun-17 11:00N 50°59' E 001°23'1122.1
2018-Jun-17 10:30N 51°06' E 001°36'1122.4
2018-Jun-17 10:01N 51°15' E 001°47'1121.8
2018-Jun-17 09:30N 51°24' E 001°56'1121.5
2018-Jun-17 09:00N 51°33' E 002°05'1020.7
2018-Jun-17 08:30N 51°41' E 002°16'1020.2
2018-Jun-17 08:00N 51°48' E 002°28'1019.8
2018-Jun-17 07:30N 51°55' E 002°39'1619.0
2018-Jun-17 06:41N 52°08' E 002°54'318.5
2018-Jun-17 06:30N 52°11' E 002°57'918.4
2018-Jun-17 05:59N 52°18' E 003°05'918.2
2018-Jun-17 05:29N 52°26' E 003°13'917.9
2018-Jun-17 04:59N 52°34' E 003°21'918.0
2018-Jun-17 04:30N 52°40' E 003°31'1117.9
2018-Jun-17 03:54N 52°49' E 003°42'818.1
2018-Jun-17 03:26N 52°55' E 003°51'1118.8
2018-Jun-17 02:52N 53°02' E 004°05'719.3
2018-Jun-17 02:30N 53°06' E 004°14'1019.0
2018-Jun-17 02:00N 53°12' E 004°26'918.1
2018-Jun-17 01:30N 53°21' E 004°32'917.5
2018-Jun-17 01:00N 53°28' E 004°40'917.5
2018-Jun-17 00:31N 53°32' E 004°53'917.3
2018-Jun-17 00:00N 53°36' E 005°06'815.2
2018-Jun-16 23:30N 53°38' E 005°18'814.7
2018-Jun-16 22:59N 53°41' E 005°30'7114.6
2018-Jun-16 18:08N 53°59' E 007°26'514.7
2018-Jun-16 17:47N 54°00' E 007°35'414.7
2018-Jun-16 17:30N 54°01' E 007°42'5 9.0
2018-Jun-16 16:57N 54°01' E 007°50'3 6.7
2018-Jun-16 16:30N 54°01' E 007°55'714.3
2018-Jun-16 16:00N 54°01' E 008°08'613.0
2018-Jun-16 15:30N 54°00' E 008°18'714.2
2018-Jun-16 15:00N 53°58' E 008°30'611.9
2018-Jun-16 14:30N 53°56' E 008°40'510.6
2018-Jun-16 14:00N 53°52' E 008°44'5 9.3
2018-Jun-16 13:30N 53°50' E 008°52'5 9.2
2018-Jun-16 13:00N 53°51' E 008°60'4 8.5
2018-Jun-16 12:30N 53°53' E 009°06'3 6.7
2018-Jun-16 12:00N 53°53' E 009°12'4 7.2
2018-Jun-16 11:30N 53°52' E 009°18'5 9.4
2018-Jun-16 11:00N 53°48' E 009°23'611.4
2018-Jun-16 10:30N 53°43' E 009°28'611.1
2018-Jun-16 10:00N 53°38' E 009°32'612.0
2018-Jun-16 09:30N 53°34' E 009°39'611.9
2018-Jun-16 09:01N 53°33' E 009°49'5 9.1
2018-Jun-16 08:30N 53°32' E 009°56'2 3.2
2018-Jun-16 07:58N 53°30' E 009°56'0 0.0
2018-Jun-16 07:28N 53°30' E 009°56'0 0.0
2018-Jun-16 06:58N 53°30' E 009°56'0 0.0
2018-Jun-16 06:28N 53°30' E 009°56'0 0.0
2018-Jun-16 05:58N 53°30' E 009°56'0 0.0
2018-Jun-16 05:28N 53°30' E 009°56'0 0.0
2018-Jun-16 04:58N 53°30' E 009°56'0 0.0
2018-Jun-16 04:28N 53°30' E 009°56'0 0.0
2018-Jun-16 03:58N 53°30' E 009°56'0 0.0
2018-Jun-16 03:28N 53°30' E 009°56'0 0.0
2018-Jun-16 02:58N 53°30' E 009°56'0 0.0
2018-Jun-16 02:28N 53°30' E 009°56'0 0.0
2018-Jun-16 01:58N 53°30' E 009°56'0 0.0
2018-Jun-16 01:28N 53°30' E 009°56'0 0.0
2018-Jun-16 00:58N 53°30' E 009°56'0 0.0
2018-Jun-16 00:28N 53°30' E 009°56'0 0.0
2018-Jun-15 23:58N 53°30' E 009°56'0 0.0
2018-Jun-15 23:28N 53°30' E 009°56'0 0.0
2018-Jun-15 22:58N 53°30' E 009°56'0 0.0
2018-Jun-15 22:28N 53°30' E 009°56'0 0.0
2018-Jun-15 21:58N 53°30' E 009°56'0 0.0
2018-Jun-15 21:28N 53°30' E 009°56'0 0.0
2018-Jun-15 20:58N 53°30' E 009°56'0 0.0
2018-Jun-15 20:28N 53°30' E 009°56'0 0.0
2018-Jun-15 19:58N 53°30' E 009°56'0 0.0
2018-Jun-15 19:28N 53°30' E 009°56'0 0.0
2018-Jun-15 18:58N 53°30' E 009°56'0 0.0
2018-Jun-15 18:28N 53°30' E 009°56'0 0.0
2018-Jun-15 17:58N 53°30' E 009°56'0 0.0
2018-Jun-15 17:28N 53°30' E 009°56'0 0.0
2018-Jun-15 16:55N 53°30' E 009°56'0 0.0
2018-Jun-15 16:28N 53°30' E 009°56'0 0.0
2018-Jun-15 15:58N 53°30' E 009°56'0 0.0
2018-Jun-15 15:28N 53°30' E 009°56'0 0.0
2018-Jun-15 14:58N 53°30' E 009°56'0 0.0
2018-Jun-15 14:28N 53°30' E 009°56'0 0.0
2018-Jun-15 13:58N 53°30' E 009°56'0 0.0
2018-Jun-15 13:28N 53°30' E 009°56'0 0.0
2018-Jun-15 12:58N 53°30' E 009°56'0 0.0
2018-Jun-15 12:28N 53°30' E 009°56'0 0.0
2018-Jun-15 11:58N 53°30' E 009°56'0 0.0
2018-Jun-15 11:28N 53°30' E 009°56'0 0.0
2018-Jun-15 10:58N 53°30' E 009°56'0 0.0
2018-Jun-15 10:28N 53°30' E 009°56'0 0.0
2018-Jun-15 09:58N 53°30' E 009°56'0 0.0
2018-Jun-15 09:28N 53°30' E 009°56'0 0.0
2018-Jun-15 08:58N 53°30' E 009°56'0 0.0
2018-Jun-15 08:28N 53°30' E 009°56'0 0.0
2018-Jun-15 07:58N 53°30' E 009°56'0 0.0
2018-Jun-15 07:28N 53°30' E 009°56'0 0.0
2018-Jun-15 06:58N 53°30' E 009°56'0 0.0
2018-Jun-15 06:28N 53°30' E 009°56'0 0.0
2018-Jun-15 05:58N 53°30' E 009°56'0 0.0
2018-Jun-15 05:28N 53°30' E 009°56'0 0.0
2018-Jun-15 04:58N 53°30' E 009°56'0 0.0
2018-Jun-15 04:28N 53°30' E 009°56'0 0.4
2018-Jun-15 04:01N 53°30' E 009°56'2 4.6
2018-Jun-15 03:30N 53°32' E 009°56'5 9.0
2018-Jun-15 03:00N 53°33' E 009°49'5 9.8
2018-Jun-15 02:30N 53°34' E 009°41'612.8
2018-Jun-15 02:01N 53°38' E 009°32'510.2
2018-Jun-15 01:31N 53°43' E 009°29'712.9
2018-Jun-15 01:00N 53°48' E 009°23'612.9
2018-Jun-15 00:30N 53°53' E 009°15'510.1
2018-Jun-15 00:00N 53°53' E 009°06'5 9.2
2018-Jun-14 23:30N 53°51' E 008°59'613.0
2018-Jun-14 23:01N 53°50' E 008°48'5 9.2
2018-Jun-14 22:30N 53°53' E 008°42'5 9.6
2018-Jun-14 22:00N 53°57' E 008°37'510.0
2018-Jun-14 21:30N 53°58' E 008°29'510.5
2018-Jun-14 21:01N 53°59' E 008°20'611.9
2018-Jun-14 20:30N 53°60' E 008°10'510.4
2018-Jun-14 20:00N 53°59' E 008°01'3 6.5
2018-Jun-14 19:30N 53°58' E 007°56'510.6
2018-Jun-14 19:00N 53°57' E 007°47'713.4
2018-Jun-14 18:30N 53°56' E 007°36'812.9
2018-Jun-14 17:55N 53°54' E 007°24'7214.7
2018-Jun-14 13:03N 53°36' E 005°27'316.4
2018-Jun-14 12:52N 53°35' E 005°22'816.4
2018-Jun-14 12:24N 53°32' E 005°10'616.3
2018-Jun-14 12:01N 53°30' E 005°00'816.3
2018-Jun-14 11:31N 53°25' E 004°48'815.8
2018-Jun-14 11:00N 53°20' E 004°39'916.3
2018-Jun-14 10:28N 53°12' E 004°32'816.3
2018-Jun-14 10:00N 53°05' E 004°26'816.1
2018-Jun-14 09:31N 52°58' E 004°20'816.1
2018-Jun-14 09:00N 52°51' E 004°14'815.9
2018-Jun-14 08:30N 52°44' E 004°08'815.9
2018-Jun-14 08:01N 52°37' E 004°00'815.3
2018-Jun-14 07:30N 52°30' E 003°55'816.1
2018-Jun-14 07:00N 52°23' E 003°52'816.2
2018-Jun-14 06:31N 52°15' E 003°53'816.6
2018-Jun-14 06:00N 52°06' E 003°54'4 9.0
2018-Jun-14 05:30N 52°02' E 003°56'612.2
2018-Jun-14 05:00N 51°59' E 004°05'2 3.6
2018-Jun-14 04:30N 51°57' E 004°05'1 1.7
2018-Jun-14 04:00N 51°57' E 004°03'0 0.0
2018-Jun-14 03:29N 51°57' E 004°03'0 0.0
2018-Jun-14 02:59N 51°57' E 004°03'0 0.0
2018-Jun-14 02:29N 51°57' E 004°03'0 0.0
2018-Jun-14 01:59N 51°57' E 004°03'0 0.0
2018-Jun-14 01:29N 51°57' E 004°03'0 0.0
2018-Jun-14 00:59N 51°57' E 004°03'0 0.0
2018-Jun-14 00:29N 51°57' E 004°03'0 0.0
2018-Jun-13 23:59N 51°57' E 004°03'0 0.0
2018-Jun-13 23:29N 51°57' E 004°03'0 0.0
2018-Jun-13 22:59N 51°57' E 004°03'0 0.0
2018-Jun-13 22:29N 51°57' E 004°03'0 0.0
2018-Jun-13 21:59N 51°57' E 004°03'0 0.0
2018-Jun-13 21:29N 51°57' E 004°03'0 0.0
2018-Jun-13 20:59N 51°57' E 004°03'0 0.0
2018-Jun-13 20:29N 51°57' E 004°03'0 0.0
2018-Jun-13 19:59N 51°57' E 004°03'0 0.0
2018-Jun-13 19:29N 51°57' E 004°03'0 0.0
2018-Jun-13 18:59N 51°57' E 004°03'0 0.0
2018-Jun-13 18:29N 51°57' E 004°03'0 0.0
2018-Jun-13 17:59N 51°57' E 004°03'0 0.0
2018-Jun-13 17:29N 51°57' E 004°03'0 0.0
2018-Jun-13 16:59N 51°57' E 004°03'0 0.0
2018-Jun-13 16:29N 51°57' E 004°03'0 0.0
2018-Jun-13 15:59N 51°57' E 004°03'0 0.0
2018-Jun-13 15:29N 51°57' E 004°03'0 0.0
2018-Jun-13 14:59N 51°57' E 004°03'0 0.0
2018-Jun-13 14:29N 51°57' E 004°03'0 0.1
2018-Jun-13 13:59N 51°57' E 004°03'0 0.1
2018-Jun-13 13:29N 51°57' E 004°03'0 0.0
2018-Jun-13 12:59N 51°57' E 004°03'0 0.0
2018-Jun-13 12:29N 51°57' E 004°03'0 0.0
2018-Jun-13 11:59N 51°57' E 004°03'0 0.0
2018-Jun-13 11:29N 51°57' E 004°03'0 0.0
2018-Jun-13 10:59N 51°57' E 004°03'0 0.0
2018-Jun-13 10:29N 51°57' E 004°03'0 0.0
2018-Jun-13 09:59N 51°57' E 004°03'0 0.0
2018-Jun-13 09:29N 51°57' E 004°03'0 0.0
2018-Jun-13 08:59N 51°57' E 004°03'0 0.0
2018-Jun-13 08:29N 51°57' E 004°03'0 0.0
2018-Jun-13 07:59N 51°57' E 004°03'0 0.0
2018-Jun-13 07:29N 51°57' E 004°03'0 0.0
2018-Jun-13 06:59N 51°57' E 004°03'0 0.0
2018-Jun-13 06:29N 51°57' E 004°03'0 0.0
2018-Jun-13 05:59N 51°57' E 004°03'0 0.0
2018-Jun-13 05:29N 51°57' E 004°03'0 0.0
2018-Jun-13 04:59N 51°57' E 004°03'0 0.0
2018-Jun-13 04:26N 51°57' E 004°03'0 0.0
2018-Jun-13 03:59N 51°57' E 004°03'0 0.0
2018-Jun-13 03:29N 51°57' E 004°03'0 0.0
2018-Jun-13 02:59N 51°57' E 004°03'0 0.0
2018-Jun-13 02:29N 51°57' E 004°03'0 0.1
2018-Jun-13 01:59N 51°57' E 004°03'0 0.1
2018-Jun-13 01:29N 51°57' E 004°03'0 0.0
2018-Jun-13 00:59N 51°57' E 004°03'0 0.0
2018-Jun-13 00:29N 51°57' E 004°03'0 0.0
2018-Jun-12 23:59N 51°57' E 004°03'0 0.0
2018-Jun-12 23:29N 51°57' E 004°03'0 0.0
2018-Jun-12 22:59N 51°57' E 004°03'0 0.0
2018-Jun-12 22:29N 51°57' E 004°03'0 0.0
2018-Jun-12 21:59N 51°57' E 004°03'0 0.0
2018-Jun-12 21:29N 51°57' E 004°03'0 0.0
2018-Jun-12 20:59N 51°57' E 004°03'0 0.0
2018-Jun-12 20:29N 51°57' E 004°03'0 0.0
2018-Jun-12 19:59N 51°57' E 004°03'0 0.0
2018-Jun-12 19:29N 51°57' E 004°03'0 0.0
2018-Jun-12 18:59N 51°57' E 004°03'0 0.0
2018-Jun-12 18:29N 51°57' E 004°03'0 0.0
2018-Jun-12 17:59N 51°57' E 004°03'0 0.0
2018-Jun-12 17:29N 51°57' E 004°03'0 0.0
2018-Jun-12 16:59N 51°57' E 004°03'0 0.0
2018-Jun-12 16:29N 51°57' E 004°03'0 0.0
2018-Jun-12 15:59N 51°57' E 004°03'0 0.0
2018-Jun-12 15:29N 51°57' E 004°03'0 0.0
2018-Jun-12 14:59N 51°57' E 004°03'0 0.0
2018-Jun-12 14:29N 51°57' E 004°03'0 0.0
2018-Jun-12 13:59N 51°57' E 004°03'0 0.0
2018-Jun-12 13:29N 51°57' E 004°03'0 0.1
2018-Jun-12 12:59N 51°57' E 004°03'0 0.1
2018-Jun-12 12:29N 51°57' E 004°03'0 0.0
2018-Jun-12 11:59N 51°57' E 004°03'0 0.0
2018-Jun-12 11:29N 51°57' E 004°03'0 0.0
2018-Jun-12 10:59N 51°57' E 004°03'0 0.4
2018-Jun-12 10:30N 51°57' E 004°03'2 3.5
2018-Jun-12 10:00N 51°58' E 004°05'4 7.5
2018-Jun-12 09:30N 51°60' E 003°60'3 5.2
2018-Jun-12 09:00N 51°60' E 003°56'2 4.6
2018-Jun-12 08:30N 51°59' E 003°52'2 4.4
2018-Jun-12 08:00N 51°59' E 003°49'4 7.1
2018-Jun-12 07:30N 51°58' E 003°43'611.9
2018-Jun-12 07:00N 51°58' E 003°33'714.5
2018-Jun-12 06:30N 51°55' E 003°22'714.4
2018-Jun-12 06:00N 51°53' E 003°11'814.8
2018-Jun-12 05:28N 51°51' E 002°59'714.9
2018-Jun-12 05:00N 51°49' E 002°48'815.2
2018-Jun-12 04:30N 51°47' E 002°36'815.6
2018-Jun-12 04:00N 51°41' E 002°28'815.7
2018-Jun-12 03:31N 51°35' E 002°20'816.0
2018-Jun-12 03:01N 51°28' E 002°13'816.2
2018-Jun-12 02:31N 51°21' E 002°09'816.0
2018-Jun-12 02:01N 51°14' E 002°02'816.4
2018-Jun-12 01:31N 51°09' E 001°52'816.6
2018-Jun-12 01:01N 51°03' E 001°42'917.4
2018-Jun-12 00:31N 50°57' E 001°32'917.3
2018-Jun-12 00:00N 50°50' E 001°26'816.8
2018-Jun-11 23:31N 50°42' E 001°21'816.6
2018-Jun-11 23:01N 50°36' E 001°11'815.9
2018-Jun-11 22:30N 50°31' E 001°02'815.4
2018-Jun-11 22:01N 50°28' E 000°51'815.6
2018-Jun-11 21:30N 50°25' E 000°39'815.9
2018-Jun-11 21:00N 50°22' E 000°27'816.4
2018-Jun-11 20:31N 50°19' E 000°15'917.0
2018-Jun-11 20:00N 50°17' E 000°03'917.5
2018-Jun-11 19:31N 50°14' W 000°10'918.0
2018-Jun-11 19:01N 50°10' W 000°23'918.3
2018-Jun-11 18:30N 50°06' W 000°36'918.6
2018-Jun-11 18:00N 50°02' W 000°49'1019.3
2018-Jun-11 17:31N 49°58' W 001°03'1020.4
2018-Jun-11 17:01N 49°54' W 001°17'1020.3
2018-Jun-11 16:31N 49°49' W 001°31'917.5
2018-Jun-11 16:00N 49°43' W 001°41'4 7.2
2018-Jun-11 15:30N 49°45' W 001°46'5 9.3
2018-Jun-11 15:00N 49°46' W 001°53'5 9.1
2018-Jun-11 14:30N 49°48' W 001°60'510.8
2018-Jun-11 14:01N 49°50' W 002°08'816.9
2018-Jun-11 13:30N 49°53' W 002°20'816.5
2018-Jun-11 13:01N 49°52' W 002°33'816.7
2018-Jun-11 12:31N 49°50' W 002°45'816.5
2018-Jun-11 12:00N 49°46' W 002°57'916.5
2018-Jun-11 11:27N 49°42' W 003°10'716.5
2018-Jun-11 11:00N 49°39' W 003°20'816.7
2018-Jun-11 10:30N 49°35' W 003°31'816.8
2018-Jun-11 10:00N 49°30' W 003°42'816.8
2018-Jun-11 09:30N 49°26' W 003°53'5216.8
2018-Jun-11 06:25N 49°02' W 005°03'716.8
2018-Jun-11 06:00N 48°58' W 005°12'816.6
2018-Jun-11 05:31N 48°54' W 005°23'816.8
2018-Jun-11 05:00N 48°49' W 005°33'1016.7
2018-Jun-11 04:25N 48°42' W 005°43'1017.6
2018-Jun-11 03:52N 48°33' W 005°50'2717.8
2018-Jun-11 02:22N 48°09' W 006°07'  
Track history (hours):
 
Tides and Currents Weather Stations Pressure Air Temp Water Temp Dewpoint Dewpoint Depression Visibility Wind Speed Wind Dir Waves Ship Positions

Nyk Virgo

Last reported at 2018-Jun-20 12:28 UTC. Time now 2018-Jun-20 12:54 UTC.
Position N 49°27' E 000°10'.

Length 338 m; draft 12.9 m.

Type: Ship (hazmat cat A). MMSI: 563025600.

Date/timePositionNaut miles runAvg speedWind from/ knotsBaromVisibWave heightAir tempDewpointWater temp
2018-Jun-20 12:28N 49°27' E 000°10'0 0.0
2018-Jun-20 11:58N 49°27' E 000°10'0 0.0
2018-Jun-20 11:28N 49°27' E 000°10'0 0.0
2018-Jun-20 10:58N 49°27' E 000°10'0 0.0
2018-Jun-20 10:28N 49°27' E 000°10'0 0.0
2018-Jun-20 09:58N 49°27' E 000°10'0 0.0
2018-Jun-20 09:28N 49°27' E 000°10'0 0.0
2018-Jun-20 08:58N 49°27' E 000°10'0 0.0
2018-Jun-20 08:28N 49°27' E 000°10'0 0.0
2018-Jun-20 07:58N 49°27' E 000°10'0 0.0
2018-Jun-20 07:28N 49°27' E 000°10'0 0.0
2018-Jun-20 06:58N 49°27' E 000°10'0 0.1
2018-Jun-20 06:28N 49°27' E 000°10'0 0.0
2018-Jun-20 05:58N 49°27' E 000°10'0 0.0
2018-Jun-20 05:28N 49°27' E 000°10'0 0.0
2018-Jun-20 04:58N 49°27' E 000°10'0 0.0
2018-Jun-20 04:28N 49°27' E 000°10'0 0.0
2018-Jun-20 03:58N 49°27' E 000°10'0 0.0
2018-Jun-20 03:28N 49°27' E 000°10'0 0.0
2018-Jun-20 02:58N 49°27' E 000°10'0 0.0
2018-Jun-20 02:28N 49°27' E 000°10'0 0.0
2018-Jun-20 01:58N 49°27' E 000°10'0 0.1
2018-Jun-20 01:28N 49°27' E 000°10'0 0.1
2018-Jun-20 00:58N 49°27' E 000°10'0 0.0
2018-Jun-20 00:28N 49°27' E 000°10'0 0.0
2018-Jun-19 23:58N 49°27' E 000°10'0 0.0
2018-Jun-19 23:28N 49°27' E 000°10'0 0.0
2018-Jun-19 22:58N 49°27' E 000°10'0 0.0
2018-Jun-19 22:28N 49°27' E 000°10'0 0.0
2018-Jun-19 21:58N 49°27' E 000°10'0 0.0
2018-Jun-19 21:28N 49°27' E 000°10'0 0.0
2018-Jun-19 20:58N 49°27' E 000°10'0 0.0
2018-Jun-19 20:28N 49°27' E 000°10'0 0.0
2018-Jun-19 19:58N 49°27' E 000°10'0 0.0
2018-Jun-19 19:28N 49°27' E 000°10'0 0.0
2018-Jun-19 18:58N 49°27' E 000°10'0 0.0
2018-Jun-19 18:28N 49°27' E 000°10'0 0.0
2018-Jun-19 17:58N 49°27' E 000°10'0 0.0
2018-Jun-19 17:28N 49°27' E 000°10'0 0.0
2018-Jun-19 16:58N 49°27' E 000°10'0 0.0
2018-Jun-19 16:28N 49°27' E 000°10'0 0.0
2018-Jun-19 15:58N 49°27' E 000°10'0 0.1
2018-Jun-19 15:30N 49°27' E 000°10'1 1.6
2018-Jun-19 15:00N 49°27' E 000°09'5 9.7
2018-Jun-19 14:30N 49°30' E 000°02'612.8
2018-Jun-19 14:00N 49°32' W 000°07'3 5.8
2018-Jun-19 13:30N 49°33' W 000°11'510.3
2018-Jun-19 13:00N 49°34' W 000°19'511.0
2018-Jun-19 12:30N 49°38' W 000°26'612.5
2018-Jun-19 12:01N 49°42' W 000°33'918.0
2018-Jun-19 11:31N 49°47' W 000°44'917.2
2018-Jun-19 11:00N 49°56' W 000°47'816.7
2018-Jun-19 10:31N 50°04' W 000°49'816.5
2018-Jun-19 10:00N 50°12' W 000°51'916.5
2018-Jun-19 09:28N 50°21' W 000°53'816.3
2018-Jun-19 09:00N 50°28' W 000°55'815.8
2018-Jun-19 08:30N 50°36' W 000°56'4 7.1
2018-Jun-19 08:00N 50°40' W 000°57'510.0
2018-Jun-19 07:30N 50°43' W 001°02'612.9
2018-Jun-19 07:00N 50°46' W 001°11'5 9.6
2018-Jun-19 06:30N 50°48' W 001°18'5 9.6
2018-Jun-19 06:00N 50°52' W 001°22'4 7.4
2018-Jun-19 05:31N 50°54' W 001°27'1 1.6
2018-Jun-19 05:00N 50°55' W 001°28'0 0.1
2018-Jun-19 04:25N 50°55' W 001°28'0 0.0
2018-Jun-19 03:55N 50°55' W 001°28'0 0.0
2018-Jun-19 03:28N 50°55' W 001°28'0 0.0
2018-Jun-19 01:58N 50°55' W 001°28'0 0.0
2018-Jun-18 15:37N 50°55' W 001°28'0 0.0
2018-Jun-18 08:46N 50°55' W 001°28'0 0.0
2018-Jun-18 08:13N 50°55' W 001°28'0 0.0
2018-Jun-18 07:49N 50°55' W 001°28'0 0.1
2018-Jun-18 07:28N 50°55' W 001°28'0 0.0
2018-Jun-18 05:31N 50°55' W 001°28'0 0.0
2018-Jun-18 05:07N 50°55' W 001°28'0 0.0
2018-Jun-18 01:07N 50°55' W 001°28'0 0.0
2018-Jun-18 00:55N 50°55' W 001°28'0 0.0
2018-Jun-17 20:55N 50°55' W 001°28'0 0.0
2018-Jun-17 20:19N 50°55' W 001°28'0 1.3
2018-Jun-17 20:00N 50°54' W 001°27'2 4.3
2018-Jun-17 19:30N 50°53' W 001°24'4 8.3
2018-Jun-17 19:01N 50°51' W 001°19'4 8.0
2018-Jun-17 18:30N 50°47' W 001°19'713.1
2018-Jun-17 18:00N 50°46' W 001°08'612.3
2018-Jun-17 17:30N 50°43' W 000°60'5 9.6
2018-Jun-17 17:00N 50°38' W 000°57'4 8.2
2018-Jun-17 16:30N 50°35' W 000°54'5 9.3
2018-Jun-17 16:00N 50°34' W 000°47'918.7
2018-Jun-17 15:30N 50°33' W 000°32'918.6
2018-Jun-17 15:00N 50°33' W 000°17'918.2
2018-Jun-17 14:29N 50°32' W 000°03'917.8
2018-Jun-17 14:00N 50°35' E 000°10'917.3
2018-Jun-17 13:30N 50°37' E 000°24'816.8
2018-Jun-17 13:00N 50°39' E 000°37'816.8
2018-Jun-17 12:30N 50°43' E 000°48'816.8
2018-Jun-17 12:00N 50°47' E 000°60'917.5
2018-Jun-17 11:30N 50°52' E 001°11'1019.8
2018-Jun-17 11:00N 50°59' E 001°23'1122.1
2018-Jun-17 10:30N 51°06' E 001°36'1122.4
2018-Jun-17 10:01N 51°15' E 001°47'1121.8
2018-Jun-17 09:30N 51°24' E 001°56'1121.5
2018-Jun-17 09:00N 51°33' E 002°05'1020.7
2018-Jun-17 08:30N 51°41' E 002°16'1020.2
2018-Jun-17 08:00N 51°48' E 002°28'1019.8
2018-Jun-17 07:30N 51°55' E 002°39'1619.0
2018-Jun-17 06:41N 52°08' E 002°54'318.5
2018-Jun-17 06:30N 52°11' E 002°57'918.4
2018-Jun-17 05:59N 52°18' E 003°05'918.2
2018-Jun-17 05:29N 52°26' E 003°13'917.9
2018-Jun-17 04:59N 52°34' E 003°21'918.0
2018-Jun-17 04:30N 52°40' E 003°31'1117.9
2018-Jun-17 03:54N 52°49' E 003°42'818.1
2018-Jun-17 03:26N 52°55' E 003°51'1118.8
2018-Jun-17 02:52N 53°02' E 004°05'719.3
2018-Jun-17 02:30N 53°06' E 004°14'1019.0
2018-Jun-17 02:00N 53°12' E 004°26'918.1
2018-Jun-17 01:30N 53°21' E 004°32'917.5
2018-Jun-17 01:00N 53°28' E 004°40'917.5
2018-Jun-17 00:31N 53°32' E 004°53'917.3
2018-Jun-17 00:00N 53°36' E 005°06'815.2
2018-Jun-16 23:30N 53°38' E 005°18'814.7
2018-Jun-16 22:59N 53°41' E 005°30'7114.6
2018-Jun-16 18:08N 53°59' E 007°26'514.7
2018-Jun-16 17:47N 54°00' E 007°35'414.7
2018-Jun-16 17:30N 54°01' E 007°42'5 9.0
2018-Jun-16 16:57N 54°01' E 007°50'3 6.7
2018-Jun-16 16:30N 54°01' E 007°55'714.3
2018-Jun-16 16:00N 54°01' E 008°08'613.0
2018-Jun-16 15:30N 54°00' E 008°18'714.2
2018-Jun-16 15:00N 53°58' E 008°30'611.9
2018-Jun-16 14:30N 53°56' E 008°40'510.6
2018-Jun-16 14:00N 53°52' E 008°44'5 9.3
2018-Jun-16 13:30N 53°50' E 008°52'5 9.2
2018-Jun-16 13:00N 53°51' E 008°60'4 8.5
2018-Jun-16 12:30N 53°53' E 009°06'3 6.7
2018-Jun-16 12:00N 53°53' E 009°12'4 7.2
2018-Jun-16 11:30N 53°52' E 009°18'5 9.4
2018-Jun-16 11:00N 53°48' E 009°23'611.4
2018-Jun-16 10:30N 53°43' E 009°28'611.1
2018-Jun-16 10:00N 53°38' E 009°32'612.0
2018-Jun-16 09:30N 53°34' E 009°39'611.9
2018-Jun-16 09:01N 53°33' E 009°49'5 9.1
2018-Jun-16 08:30N 53°32' E 009°56'2 3.2
2018-Jun-16 07:58N 53°30' E 009°56'0 0.0
2018-Jun-16 07:28N 53°30' E 009°56'0 0.0
2018-Jun-16 06:58N 53°30' E 009°56'0 0.0
2018-Jun-16 06:28N 53°30' E 009°56'0 0.0
2018-Jun-16 05:58N 53°30' E 009°56'0 0.0
2018-Jun-16 05:28N 53°30' E 009°56'0 0.0
2018-Jun-16 04:58N 53°30' E 009°56'0 0.0
2018-Jun-16 04:28N 53°30' E 009°56'0 0.0
2018-Jun-16 03:58N 53°30' E 009°56'0 0.0
2018-Jun-16 03:28N 53°30' E 009°56'0 0.0
2018-Jun-16 02:58N 53°30' E 009°56'0 0.0
2018-Jun-16 02:28N 53°30' E 009°56'0 0.0
2018-Jun-16 01:58N 53°30' E 009°56'0 0.0
2018-Jun-16 01:28N 53°30' E 009°56'0 0.0
2018-Jun-16 00:58N 53°30' E 009°56'0 0.0
2018-Jun-16 00:28N 53°30' E 009°56'0 0.0
2018-Jun-15 23:58N 53°30' E 009°56'0 0.0
2018-Jun-15 23:28N 53°30' E 009°56'0 0.0
2018-Jun-15 22:58N 53°30' E 009°56'0 0.0
2018-Jun-15 22:28N 53°30' E 009°56'0 0.0
2018-Jun-15 21:58N 53°30' E 009°56'0 0.0
2018-Jun-15 21:28N 53°30' E 009°56'0 0.0
2018-Jun-15 20:58N 53°30' E 009°56'0 0.0
2018-Jun-15 20:28N 53°30' E 009°56'0 0.0
2018-Jun-15 19:58N 53°30' E 009°56'0 0.0
2018-Jun-15 19:28N 53°30' E 009°56'0 0.0
2018-Jun-15 18:58N 53°30' E 009°56'0 0.0
2018-Jun-15 18:28N 53°30' E 009°56'0 0.0
2018-Jun-15 17:58N 53°30' E 009°56'0 0.0
2018-Jun-15 17:28N 53°30' E 009°56'0 0.0
2018-Jun-15 16:55N 53°30' E 009°56'0 0.0
2018-Jun-15 16:28N 53°30' E 009°56'0 0.0
2018-Jun-15 15:58N 53°30' E 009°56'0 0.0
2018-Jun-15 15:28N 53°30' E 009°56'0 0.0
2018-Jun-15 14:58N 53°30' E 009°56'0 0.0
2018-Jun-15 14:28N 53°30' E 009°56'0 0.0
2018-Jun-15 13:58N 53°30' E 009°56'0 0.0
2018-Jun-15 13:28N 53°30' E 009°56'0 0.0
2018-Jun-15 12:58N 53°30' E 009°56'0 0.0
2018-Jun-15 12:28N 53°30' E 009°56'0 0.0
2018-Jun-15 11:58N 53°30' E 009°56'0 0.0
2018-Jun-15 11:28N 53°30' E 009°56'0 0.0
2018-Jun-15 10:58N 53°30' E 009°56'0 0.0
2018-Jun-15 10:28N 53°30' E 009°56'0 0.0
2018-Jun-15 09:58N 53°30' E 009°56'0 0.0
2018-Jun-15 09:28N 53°30' E 009°56'0 0.0
2018-Jun-15 08:58N 53°30' E 009°56'0 0.0
2018-Jun-15 08:28N 53°30' E 009°56'0 0.0
2018-Jun-15 07:58N 53°30' E 009°56'0 0.0
2018-Jun-15 07:28N 53°30' E 009°56'0 0.0
2018-Jun-15 06:58N 53°30' E 009°56'0 0.0
2018-Jun-15 06:28N 53°30' E 009°56'0 0.0
2018-Jun-15 05:58N 53°30' E 009°56'0 0.0
2018-Jun-15 05:28N 53°30' E 009°56'0 0.0
2018-Jun-15 04:58N 53°30' E 009°56'0 0.0
2018-Jun-15 04:28N 53°30' E 009°56'0 0.4
2018-Jun-15 04:01N 53°30' E 009°56'2 4.6
2018-Jun-15 03:30N 53°32' E 009°56'5 9.0
2018-Jun-15 03:00N 53°33' E 009°49'5 9.8
2018-Jun-15 02:30N 53°34' E 009°41'612.8
2018-Jun-15 02:01N 53°38' E 009°32'510.2
2018-Jun-15 01:31N 53°43' E 009°29'712.9
2018-Jun-15 01:00N 53°48' E 009°23'612.9
2018-Jun-15 00:30N 53°53' E 009°15'510.1
2018-Jun-15 00:00N 53°53' E 009°06'5 9.2
2018-Jun-14 23:30N 53°51' E 008°59'613.0
2018-Jun-14 23:01N 53°50' E 008°48'5 9.2
2018-Jun-14 22:30N 53°53' E 008°42'5 9.6
2018-Jun-14 22:00N 53°57' E 008°37'510.0
2018-Jun-14 21:30N 53°58' E 008°29'510.5
2018-Jun-14 21:01N 53°59' E 008°20'611.9
2018-Jun-14 20:30N 53°60' E 008°10'510.4
2018-Jun-14 20:00N 53°59' E 008°01'3 6.5
2018-Jun-14 19:30N 53°58' E 007°56'510.6
2018-Jun-14 19:00N 53°57' E 007°47'713.4
2018-Jun-14 18:30N 53°56' E 007°36'812.9
2018-Jun-14 17:55N 53°54' E 007°24'7214.7
2018-Jun-14 13:03N 53°36' E 005°27'316.4
2018-Jun-14 12:52N 53°35' E 005°22'816.4
2018-Jun-14 12:24N 53°32' E 005°10'616.3
2018-Jun-14 12:01N 53°30' E 005°00'816.3
2018-Jun-14 11:31N 53°25' E 004°48'815.8
2018-Jun-14 11:00N 53°20' E 004°39'916.3
2018-Jun-14 10:28N 53°12' E 004°32'816.3
2018-Jun-14 10:00N 53°05' E 004°26'816.1
2018-Jun-14 09:31N 52°58' E 004°20'816.1
2018-Jun-14 09:00N 52°51' E 004°14'815.9
2018-Jun-14 08:30N 52°44' E 004°08'815.9
2018-Jun-14 08:01N 52°37' E 004°00'815.3
2018-Jun-14 07:30N 52°30' E 003°55'816.1
2018-Jun-14 07:00N 52°23' E 003°52'816.2
2018-Jun-14 06:31N 52°15' E 003°53'816.6
2018-Jun-14 06:00N 52°06' E 003°54'4 9.0
2018-Jun-14 05:30N 52°02' E 003°56'612.2
2018-Jun-14 05:00N 51°59' E 004°05'2 3.6
2018-Jun-14 04:30N 51°57' E 004°05'1 1.7
2018-Jun-14 04:00N 51°57' E 004°03'0 0.0
2018-Jun-14 03:29N 51°57' E 004°03'0 0.0
2018-Jun-14 02:59N 51°57' E 004°03'0 0.0
2018-Jun-14 02:29N 51°57' E 004°03'0 0.0
2018-Jun-14 01:59N 51°57' E 004°03'0 0.0
2018-Jun-14 01:29N 51°57' E 004°03'0 0.0
2018-Jun-14 00:59N 51°57' E 004°03'0 0.0
2018-Jun-14 00:29N 51°57' E 004°03'0 0.0
2018-Jun-13 23:59N 51°57' E 004°03'0 0.0
2018-Jun-13 23:29N 51°57' E 004°03'0 0.0
2018-Jun-13 22:59N 51°57' E 004°03'0 0.0
2018-Jun-13 22:29N 51°57' E 004°03'0 0.0
2018-Jun-13 21:59N 51°57' E 004°03'0 0.0
2018-Jun-13 21:29N 51°57' E 004°03'0 0.0
2018-Jun-13 20:59N 51°57' E 004°03'0 0.0
2018-Jun-13 20:29N 51°57' E 004°03'0 0.0
2018-Jun-13 19:59N 51°57' E 004°03'0 0.0
2018-Jun-13 19:29N 51°57' E 004°03'0 0.0
2018-Jun-13 18:59N 51°57' E 004°03'0 0.0
2018-Jun-13 18:29N 51°57' E 004°03'0 0.0
2018-Jun-13 17:59N 51°57' E 004°03'0 0.0
2018-Jun-13 17:29N 51°57' E 004°03'0 0.0
2018-Jun-13 16:59N 51°57' E 004°03'0 0.0
2018-Jun-13 16:29N 51°57' E 004°03'0 0.0
2018-Jun-13 15:59N 51°57' E 004°03'0 0.0
2018-Jun-13 15:29N 51°57' E 004°03'0 0.0
2018-Jun-13 14:59N 51°57' E 004°03'0 0.0
2018-Jun-13 14:29N 51°57' E 004°03'0 0.1
2018-Jun-13 13:59N 51°57' E 004°03'0 0.1
2018-Jun-13 13:29N 51°57' E 004°03'0 0.0
2018-Jun-13 12:59N 51°57' E 004°03'0 0.0
2018-Jun-13 12:29N 51°57' E 004°03'0 0.0
2018-Jun-13 11:59N 51°57' E 004°03'0 0.0
2018-Jun-13 11:29N 51°57' E 004°03'0 0.0
2018-Jun-13 10:59N 51°57' E 004°03'0 0.0
2018-Jun-13 10:29N 51°57' E 004°03'0 0.0
2018-Jun-13 09:59N 51°57' E 004°03'0 0.0
2018-Jun-13 09:29N 51°57' E 004°03'0 0.0
2018-Jun-13 08:59N 51°57' E 004°03'0 0.0
2018-Jun-13 08:29N 51°57' E 004°03'0 0.0
2018-Jun-13 07:59N 51°57' E 004°03'0 0.0
2018-Jun-13 07:29N 51°57' E 004°03'0 0.0
2018-Jun-13 06:59N 51°57' E 004°03'0 0.0
2018-Jun-13 06:29N 51°57' E 004°03'0 0.0
2018-Jun-13 05:59N 51°57' E 004°03'0 0.0
2018-Jun-13 05:29N 51°57' E 004°03'0 0.0
2018-Jun-13 04:59N 51°57' E 004°03'0 0.0
2018-Jun-13 04:26N 51°57' E 004°03'0 0.0
2018-Jun-13 03:59N 51°57' E 004°03'0 0.0
2018-Jun-13 03:29N 51°57' E 004°03'0 0.0
2018-Jun-13 02:59N 51°57' E 004°03'0 0.0
2018-Jun-13 02:29N 51°57' E 004°03'0 0.1
2018-Jun-13 01:59N 51°57' E 004°03'0 0.1
2018-Jun-13 01:29N 51°57' E 004°03'0 0.0
2018-Jun-13 00:59N 51°57' E 004°03'0 0.0
2018-Jun-13 00:29N 51°57' E 004°03'0 0.0
2018-Jun-12 23:59N 51°57' E 004°03'0 0.0
2018-Jun-12 23:29N 51°57' E 004°03'0 0.0
2018-Jun-12 22:59N 51°57' E 004°03'0 0.0
2018-Jun-12 22:29N 51°57' E 004°03'0 0.0
2018-Jun-12 21:59N 51°57' E 004°03'0 0.0
2018-Jun-12 21:29N 51°57' E 004°03'0 0.0
2018-Jun-12 20:59N 51°57' E 004°03'0 0.0
2018-Jun-12 20:29N 51°57' E 004°03'0 0.0
2018-Jun-12 19:59N 51°57' E 004°03'0 0.0
2018-Jun-12 19:29N 51°57' E 004°03'0 0.0
2018-Jun-12 18:59N 51°57' E 004°03'0 0.0
2018-Jun-12 18:29N 51°57' E 004°03'0 0.0
2018-Jun-12 17:59N 51°57' E 004°03'0 0.0
2018-Jun-12 17:29N 51°57' E 004°03'0 0.0
2018-Jun-12 16:59N 51°57' E 004°03'0 0.0
2018-Jun-12 16:29N 51°57' E 004°03'0 0.0
2018-Jun-12 15:59N 51°57' E 004°03'0 0.0
2018-Jun-12 15:29N 51°57' E 004°03'0 0.0
2018-Jun-12 14:59N 51°57' E 004°03'0 0.0
2018-Jun-12 14:29N 51°57' E 004°03'0 0.0
2018-Jun-12 13:59N 51°57' E 004°03'0 0.0
2018-Jun-12 13:29N 51°57' E 004°03'0 0.1
2018-Jun-12 12:59N 51°57' E 004°03'0 0.1
2018-Jun-12 12:29N 51°57' E 004°03'0 0.0
2018-Jun-12 11:59N 51°57' E 004°03'0 0.0
2018-Jun-12 11:29N 51°57' E 004°03'0 0.0
2018-Jun-12 10:59N 51°57' E 004°03'0 0.4
2018-Jun-12 10:30N 51°57' E 004°03'2 3.5
2018-Jun-12 10:00N 51°58' E 004°05'4 7.5
2018-Jun-12 09:30N 51°60' E 003°60'3 5.2
2018-Jun-12 09:00N 51°60' E 003°56'2 4.6
2018-Jun-12 08:30N 51°59' E 003°52'2 4.4
2018-Jun-12 08:00N 51°59' E 003°49'4 7.1
2018-Jun-12 07:30N 51°58' E 003°43'611.9
2018-Jun-12 07:00N 51°58' E 003°33'714.5
2018-Jun-12 06:30N 51°55' E 003°22'714.4
2018-Jun-12 06:00N 51°53' E 003°11'814.8
2018-Jun-12 05:28N 51°51' E 002°59'714.9
2018-Jun-12 05:00N 51°49' E 002°48'815.2
2018-Jun-12 04:30N 51°47' E 002°36'815.6
2018-Jun-12 04:00N 51°41' E 002°28'815.7
2018-Jun-12 03:31N 51°35' E 002°20'816.0
2018-Jun-12 03:01N 51°28' E 002°13'816.2
2018-Jun-12 02:31N 51°21' E 002°09'816.0
2018-Jun-12 02:01N 51°14' E 002°02'816.4
2018-Jun-12 01:31N 51°09' E 001°52'816.6
2018-Jun-12 01:01N 51°03' E 001°42'917.4
2018-Jun-12 00:31N 50°57' E 001°32'917.3
2018-Jun-12 00:00N 50°50' E 001°26'816.8
2018-Jun-11 23:31N 50°42' E 001°21'816.6
2018-Jun-11 23:01N 50°36' E 001°11'815.9
2018-Jun-11 22:30N 50°31' E 001°02'815.4
2018-Jun-11 22:01N 50°28' E 000°51'815.6
2018-Jun-11 21:30N 50°25' E 000°39'815.9
2018-Jun-11 21:00N 50°22' E 000°27'816.4
2018-Jun-11 20:31N 50°19' E 000°15'917.0
2018-Jun-11 20:00N 50°17' E 000°03'917.5
2018-Jun-11 19:31N 50°14' W 000°10'918.0
2018-Jun-11 19:01N 50°10' W 000°23'918.3
2018-Jun-11 18:30N 50°06' W 000°36'918.6
2018-Jun-11 18:00N 50°02' W 000°49'1019.3
2018-Jun-11 17:31N 49°58' W 001°03'1020.4
2018-Jun-11 17:01N 49°54' W 001°17'1020.3
2018-Jun-11 16:31N 49°49' W 001°31'917.5
2018-Jun-11 16:00N 49°43' W 001°41'4 7.2
2018-Jun-11 15:30N 49°45' W 001°46'5 9.3
2018-Jun-11 15:00N 49°46' W 001°53'5 9.1
2018-Jun-11 14:30N 49°48' W 001°60'510.8
2018-Jun-11 14:01N 49°50' W 002°08'816.9
2018-Jun-11 13:30N 49°53' W 002°20'816.5
2018-Jun-11 13:01N 49°52' W 002°33'816.7
2018-Jun-11 12:31N 49°50' W 002°45'816.5
2018-Jun-11 12:00N 49°46' W 002°57'916.5
2018-Jun-11 11:27N 49°42' W 003°10'716.5
2018-Jun-11 11:00N 49°39' W 003°20'816.7
2018-Jun-11 10:30N 49°35' W 003°31'816.8
2018-Jun-11 10:00N 49°30' W 003°42'816.8
2018-Jun-11 09:30N 49°26' W 003°53'5216.8
2018-Jun-11 06:25N 49°02' W 005°03'716.8
2018-Jun-11 06:00N 48°58' W 005°12'816.6
2018-Jun-11 05:31N 48°54' W 005°23'816.8
2018-Jun-11 05:00N 48°49' W 005°33'1016.7
2018-Jun-11 04:25N 48°42' W 005°43'1017.6
2018-Jun-11 03:52N 48°33' W 005°50'2717.8
2018-Jun-11 02:22N 48°09' W 006°07'  

Dump ship's entire track history